Time;durP1;ratioP1;P1;durP2;ratioP2;P2;SDS_P1;SDS_P2;PMS_P1;PMS_P2;Temp;Humidity;BMP_temperature;BMP_pressure;BME280_temperature;BME280_humidity;BME280_pressure;Samples;Min_cycle;Max_cycle;Signal;HPM_P1;HPM_P2
2023/07/08 00:00:15;;;;;;;;;4.00;4.00;;;;;28.23;37.25;101098.03;5098487;27;45165;-84
2023/07/08 00:02:42;;;;;;;;;4.67;4.67;;;;;28.23;36.81;101090.00;5097484;27;45499;-84
2023/07/08 00:05:13;;;;;;;;;6.33;4.00;;;;;28.23;37.64;101087.31;5097499;27;46643;-85
2023/07/08 00:07:40;;;;;;;;;6.00;4.00;;;;;28.25;37.47;101082.56;5098214;27;45278;-85
2023/07/08 00:10:27;;;;;;;;;4.00;4.00;;;;;28.24;37.58;101079.06;5097676;27;45347;-84
2023/07/08 00:12:55;;;;;;;;;4.67;4.67;;;;;28.20;37.49;101083.22;5098466;27;45586;-84
2023/07/08 00:15:26;;;;;;;;;4.00;3.33;;;;;28.14;37.65;101074.22;5098193;27;45518;-83
2023/07/08 00:17:52;;;;;;;;;3.67;3.33;;;;;28.25;37.41;101094.09;5096334;27;45470;-84
2023/07/08 00:20:21;;;;;;;;;4.00;4.00;;;;;28.25;37.07;101087.91;5096549;27;45316;-85
2023/07/08 00:22:49;;;;;;;;;3.67;3.67;;;;;28.03;37.73;101050.81;5096943;27;45427;-85
2023/07/08 00:25:16;;;;;;;;;4.00;4.00;;;;;28.06;37.64;101061.09;5098163;27;45422;-84
2023/07/08 00:27:42;;;;;;;;;4.00;3.67;;;;;28.21;37.51;101082.16;5098519;27;45258;-85
2023/07/08 00:30:25;;;;;;;;;6.33;4.00;;;;;28.05;37.06;101064.81;5096901;27;45432;-85
2023/07/08 00:32:55;;;;;;;;;4.67;3.33;;;;;28.24;37.58;101086.28;5097908;27;45643;-86
2023/07/08 00:35:36;;;;;;;;;3.00;3.00;;;;;28.15;37.19;101069.69;5097864;27;45521;-85
2023/07/08 00:38:26;;;;;;;;;4.67;4.00;;;;;28.24;37.54;101089.78;5096523;27;45292;-84
2023/07/08 00:41:04;;;;;;;;;2.33;2.33;;;;;28.23;37.67;101088.16;5097068;27;45608;-84
2023/07/08 00:43:48;;;;;;;;;3.00;3.00;;;;;28.23;36.85;101096.19;5097555;27;45369;-84
2023/07/08 00:46:40;;;;;;;;;6.00;4.33;;;;;28.24;37.54;101091.63;5113865;27;46478;-84
2023/07/08 00:49:33;;;;;;;;;2.67;2.67;;;;;28.23;37.56;101095.34;5096512;27;45577;-84
2023/07/08 00:52:21;;;;;;;;;5.67;4.00;;;;;28.23;37.05;101096.19;5097184;27;45322;-85
2023/07/08 00:54:50;;;;;;;;;4.00;4.00;;;;;28.20;37.25;101095.78;5113951;27;45357;-85
2023/07/08 00:57:15;;;;;;;;;4.67;4.67;;;;;28.20;37.06;101098.44;5097855;27;46445;-84
2023/07/08 00:59:56;;;;;;;;;5.00;5.00;;;;;28.20;37.27;101103.81;5103818;27;45571;-84
2023/07/08 01:02:25;;;;;;;;;3.33;3.33;;;;;28.08;37.55;101096.47;5097971;27;45375;-85
2023/07/08 01:05:10;;;;;;;;;5.33;4.00;;;;;28.18;37.01;101120.88;5097400;27;45270;-84
2023/07/08 01:07:38;;;;;;;;;4.00;4.00;;;;;28.21;37.47;101133.00;5097649;27;46555;-85
2023/07/08 01:10:12;;;;;;;;;3.33;3.00;;;;;28.21;37.84;101132.19;5095889;27;45267;-84
2023/07/08 01:12:54;;;;;;;;;6.33;4.33;;;;;28.18;37.79;101131.56;5097671;27;45325;-84
2023/07/08 01:15:25;;;;;;;;;7.67;4.67;;;;;28.10;37.33;101126.50;5093029;27;45598;-85
2023/07/08 01:17:53;;;;;;;;;4.00;4.00;;;;;28.19;37.63;101143.09;5095900;27;46720;-85
2023/07/08 01:20:19;;;;;;;;;4.67;4.33;;;;;28.15;37.66;101148.06;5097073;27;45379;-85
2023/07/08 01:22:44;;;;;;;;;5.33;4.33;;;;;28.16;37.01;101148.88;5096262;27;45331;-84
2023/07/08 01:25:13;;;;;;;;;6.00;4.33;;;;;28.21;37.49;101151.72;5097686;27;45365;-85
2023/07/08 01:27:43;;;;;;;;;5.00;5.00;;;;;28.23;37.92;101159.56;5097267;27;45769;-85
2023/07/08 01:30:10;;;;;;;;;4.00;4.00;;;;;28.17;37.28;101155.88;5097067;27;45484;-84
2023/07/08 01:32:46;;;;;;;;;3.67;3.67;;;;;28.15;37.36;101142.72;5097648;27;45428;-84
2023/07/08 01:35:12;;;;;;;;;8.33;5.67;;;;;28.22;37.35;101153.38;5097160;27;45352;-85
2023/07/08 01:37:46;;;;;;;;;2.00;2.00;;;;;28.23;37.19;101168.41;5096897;27;46509;-84
2023/07/08 01:40:24;;;;;;;;;6.50;5.00;;;;;28.22;37.57;101188.16;5095884;27;45386;-84
2023/07/08 01:42:49;;;;;;;;;4.00;4.00;;;;;28.18;37.04;101184.28;5095890;27;45284;-84
2023/07/08 01:45:18;;;;;;;;;5.00;5.00;;;;;28.22;37.67;101182.81;5078392;27;45411;-84
2023/07/08 01:47:50;;;;;;;;;5.00;5.00;;;;;28.13;37.62;101187.56;5097011;27;46166;-85
2023/07/08 01:50:16;;;;;;;;;5.00;4.00;;;;;28.14;37.76;101167.81;5095103;27;45427;-85
2023/07/08 01:52:42;;;;;;;;;4.00;4.00;;;;;28.21;37.75;101202.56;5092221;27;45321;-84
2023/07/08 01:55:08;;;;;;;;;3.33;3.00;;;;;28.18;37.68;101195.78;5076431;27;45369;-85
2023/07/08 01:57:33;;;;;;;;;4.67;4.67;;;;;28.09;37.76;101197.06;5076233;27;45378;-84
2023/07/08 01:59:58;;;;;;;;;5.00;4.00;;;;;28.16;37.31;101192.50;5091685;27;45491;-84
2023/07/08 02:02:25;;;;;;;;;4.00;4.00;;;;;28.13;37.41;101190.25;5096417;27;45371;-85
2023/07/08 02:04:50;;;;;;;;;5.00;5.00;;;;;28.20;37.57;101208.94;5096622;27;45319;-84
2023/07/08 02:07:16;;;;;;;;;5.00;5.00;;;;;28.13;37.83;101198.28;5096620;27;46275;-85
2023/07/08 02:09:42;;;;;;;;;5.67;5.67;;;;;28.14;37.86;101199.91;5096589;27;45389;-84
2023/07/08 02:12:07;;;;;;;;;3.33;3.33;;;;;28.15;37.61;101190.88;5095674;27;45284;-84
2023/07/08 02:14:33;;;;;;;;;4.00;4.00;;;;;28.17;37.81;101201.34;5095241;27;45670;-84
2023/07/08 02:16:58;;;;;;;;;5.33;5.33;;;;;28.13;37.70;101179.53;5094975;27;45240;-84
2023/07/08 02:19:24;;;;;;;;;5.67;5.00;;;;;28.21;37.69;101183.03;5112100;27;45374;-85
2023/07/08 02:21:51;;;;;;;;;4.00;3.00;;;;;28.18;37.67;101179.72;5096797;27;45597;-85
2023/07/08 02:24:17;;;;;;;;;4.67;4.00;;;;;28.16;37.30;101170.28;5096437;27;45633;-84
2023/07/08 02:26:43;;;;;;;;;4.00;4.00;;;;;28.14;38.02;101167.00;5096258;27;45583;-84
2023/07/08 02:29:08;;;;;;;;;4.00;4.00;;;;;28.22;37.30;101177.44;5096241;27;45408;-85
2023/07/08 02:31:34;;;;;;;;;5.67;5.67;;;;;28.11;37.52;101170.91;5094985;27;45490;-85
2023/07/08 02:34:01;;;;;;;;;5.00;3.33;;;;;28.17;37.24;101175.44;5094994;27;45332;-85
2023/07/08 02:36:27;;;;;;;;;5.00;3.33;;;;;28.17;37.86;101167.41;5096300;27;45662;-85
2023/07/08 02:38:52;;;;;;;;;5.67;3.33;;;;;28.21;37.92;101180.34;5095355;27;45420;-83
2023/07/08 02:41:17;;;;;;;;;6.00;5.00;;;;;28.17;37.39;101178.09;5077746;27;45351;-84
2023/07/08 02:43:43;;;;;;;;;5.00;4.00;;;;;28.13;37.77;101171.53;5096390;27;45334;-84
2023/07/08 02:46:08;;;;;;;;;5.00;3.33;;;;;28.16;37.65;101171.09;5094748;27;47450;-84
2023/07/08 02:48:33;;;;;;;;;5.67;5.67;;;;;28.16;37.53;101159.56;5094773;27;45434;-84
2023/07/08 02:51:01;;;;;;;;;5.67;4.67;;;;;28.20;37.79;101163.47;5091404;27;45362;-84
2023/07/08 02:53:26;;;;;;;;;5.00;5.00;;;;;28.14;37.58;101165.16;5075859;27;45454;-84
2023/07/08 02:55:52;;;;;;;;;5.00;5.00;;;;;28.18;38.09;101169.03;5075640;27;47380;-85
2023/07/08 02:58:17;;;;;;;;;3.00;3.00;;;;;28.22;37.85;101182.81;5058639;27;45462;-84
2023/07/08 03:00:43;;;;;;;;;7.00;4.33;;;;;28.23;37.52;101175.59;5095686;27;45337;-84
2023/07/08 03:03:08;;;;;;;;;4.00;3.67;;;;;28.12;38.12;101164.53;5096524;27;45517;-84
2023/07/08 03:05:35;;;;;;;;;4.67;4.00;;;;;28.23;37.90;101183.63;5094947;27;46825;-84
2023/07/08 03:08:01;;;;;;;;;4.67;4.67;;;;;28.17;37.60;101171.91;5077547;27;45566;-85
2023/07/08 03:10:26;;;;;;;;;2.00;2.00;;;;;28.22;37.56;101179.31;5094773;27;45316;-84
2023/07/08 03:12:52;;;;;;;;;4.33;4.33;;;;;28.15;38.04;101176.66;5094939;27;45661;-85
2023/07/08 03:15:17;;;;;;;;;8.33;5.00;;;;;28.14;37.67;101186.53;5095340;27;46182;-84
2023/07/08 03:17:43;;;;;;;;;4.33;4.00;;;;;28.17;37.86;101193.31;5094203;27;45828;-85
2023/07/08 03:20:10;;;;;;;;;4.00;4.00;;;;;28.16;37.49;101192.50;5095990;27;45325;-85
2023/07/08 03:22:36;;;;;;;;;6.33;5.33;;;;;28.19;38.39;101199.28;5095899;27;45542;-85
2023/07/08 03:25:02;;;;;;;;;4.33;4.33;;;;;28.15;37.68;101193.53;5095536;27;45586;-85
2023/07/08 03:27:27;;;;;;;;;4.00;4.00;;;;;28.16;37.97;101191.66;5095580;27;45370;-85
2023/07/08 03:29:53;;;;;;;;;6.00;4.67;;;;;28.14;37.86;101194.56;5094415;27;45410;-85
2023/07/08 03:32:18;;;;;;;;;4.67;4.67;;;;;28.14;37.95;101194.56;5094581;27;45386;-85
2023/07/08 03:34:43;;;;;;;;;6.00;5.00;;;;;28.16;37.89;101205.88;5111583;27;47546;-85
2023/07/08 03:37:09;;;;;;;;;4.33;4.00;;;;;28.14;37.87;101188.41;5095341;27;45455;-85
2023/07/08 03:39:35;;;;;;;;;5.00;5.00;;;;;28.06;38.00;101178.75;5095627;27;45487;-84
2023/07/08 03:42:01;;;;;;;;;6.67;3.67;;;;;28.15;38.02;101185.53;5094258;27;45527;-84
2023/07/08 03:44:27;;;;;;;;;6.33;5.00;;;;;28.13;37.97;101179.53;5111115;27;45468;-84
2023/07/08 03:46:53;;;;;;;;;6.00;4.33;;;;;28.14;37.26;101175.03;5094383;27;45478;-84
2023/07/08 03:49:22;;;;;;;;;5.67;4.00;;;;;28.14;37.89;101170.50;5095645;27;45275;-84
2023/07/08 03:51:48;;;;;;;;;4.00;4.00;;;;;28.14;37.97;101170.50;5095323;27;45652;-84
2023/07/08 03:54:15;;;;;;;;;2.67;2.67;;;;;28.13;38.09;101168.03;5112320;27;45533;-85
2023/07/08 03:56:40;;;;;;;;;5.33;4.00;;;;;28.21;38.22;101177.69;5115043;27;45343;-84
2023/07/08 03:59:06;;;;;;;;;4.00;4.00;;;;;28.09;37.57;101156.13;5109450;27;45382;-84
2023/07/08 04:01:32;;;;;;;;;6.00;6.00;;;;;28.19;37.90;101161.81;5099033;27;45452;-84
2023/07/08 04:03:58;;;;;;;;;5.00;5.00;;;;;28.21;37.87;101164.31;5097571;27;47050;-85
2023/07/08 04:06:25;;;;;;;;;4.00;4.00;;;;;28.16;38.15;101151.53;5097399;27;45291;-85
2023/07/08 04:08:51;;;;;;;;;5.33;5.00;;;;;28.12;38.06;101134.31;5097075;27;45344;-84
2023/07/08 04:11:20;;;;;;;;;3.33;3.33;;;;;28.21;38.26;101146.38;5097217;27;45640;-84
2023/07/08 04:13:46;;;;;;;;;4.00;4.00;;;;;28.17;38.30;101137.16;5098425;27;45388;-84
2023/07/08 04:16:21;;;;;;;;;6.00;3.33;;;;;28.20;37.69;101144.75;5098050;27;45326;-84
2023/07/08 04:18:47;;;;;;;;;3.67;3.67;;;;;28.06;38.22;101119.94;5098538;27;45429;-85
2023/07/08 04:21:12;;;;;;;;;4.00;4.00;;;;;28.14;37.54;101130.38;5097214;27;45688;-85
2023/07/08 04:23:38;;;;;;;;;5.00;5.00;;;;;28.17;37.95;101119.25;5097776;27;46613;-84
2023/07/08 04:26:03;;;;;;;;;3.33;3.33;;;;;28.16;37.86;101108.75;5080097;27;45450;-85
2023/07/08 04:28:29;;;;;;;;;3.67;3.67;;;;;28.12;37.59;101105.69;5096932;27;45381;-84
2023/07/08 04:30:54;;;;;;;;;3.67;3.00;;;;;28.18;37.58;101120.88;5097183;27;45542;-84
2023/07/08 04:33:20;;;;;;;;;3.00;3.00;;;;;28.17;37.92;101113.06;5098191;27;47127;-85
2023/07/08 04:35:45;;;;;;;;;4.33;4.00;;;;;28.22;38.10;101113.25;5096979;27;45478;-84
2023/07/08 04:38:21;;;;;;;;;4.00;4.00;;;;;28.18;37.94;101099.47;5113968;27;45547;-84
2023/07/08 04:40:47;;;;;;;;;4.00;4.00;;;;;28.18;37.87;101091.44;5097188;27;45370;-84
2023/07/08 04:43:12;;;;;;;;;4.00;4.00;;;;;28.14;37.88;101073.38;5096476;27;46594;-84
2023/07/08 04:45:40;;;;;;;;;5.00;5.00;;;;;28.25;38.05;101091.41;5098125;27;45459;-84
2023/07/08 04:48:12;;;;;;;;;2.33;2.33;;;;;28.28;37.37;101087.50;5096893;27;45294;-84
2023/07/08 04:50:46;;;;;;;;;3.00;3.00;;;;;28.28;37.79;101085.63;5097790;27;45485;-84
2023/07/08 04:53:12;;;;;;;;;5.00;4.00;;;;;28.16;37.79;101063.28;5096475;27;46819;-84
2023/07/08 04:55:48;;;;;;;;;2.67;2.67;;;;;28.18;37.64;101062.03;5113677;27;45348;-85
2023/07/08 04:58:14;;;;;;;;;5.00;3.67;;;;;28.25;38.00;101066.53;5097534;27;45404;-84
2023/07/08 05:00:39;;;;;;;;;4.33;1.33;;;;;28.31;37.70;101070.19;5097666;27;45633;-84
2023/07/08 05:03:05;;;;;;;;;5.33;3.67;;;;;28.24;38.02;101055.00;5095998;27;48614;-85
2023/07/08 05:05:30;;;;;;;;;4.00;4.00;;;;;28.22;37.68;101049.03;5097124;27;45424;-85
2023/07/08 05:07:56;;;;;;;;;3.00;3.00;;;;;28.31;37.87;101056.81;5097805;27;45421;-85
2023/07/08 05:10:22;;;;;;;;;4.00;4.00;;;;;28.29;37.78;101060.50;5096648;27;45621;-84
2023/07/08 05:12:47;;;;;;;;;3.67;3.67;;;;;28.12;37.89;101046.03;5097310;27;46553;-84
2023/07/08 05:15:14;;;;;;;;;4.00;4.00;;;;;28.27;37.91;101059.09;5097709;27;45631;-84
2023/07/08 05:17:41;;;;;;;;;3.33;3.33;;;;;28.22;37.70;101048.22;5097189;27;45322;-84
2023/07/08 05:20:09;;;;;;;;;3.67;3.67;;;;;28.24;38.41;101052.31;5097790;27;45337;-85
2023/07/08 05:22:34;;;;;;;;;3.00;3.00;;;;;28.29;37.75;101067.72;5095662;27;45336;-84
2023/07/08 05:25:00;;;;;;;;;1.00;1.00;;;;;28.16;37.79;101039.19;5096033;27;45509;-84
2023/07/08 05:27:29;;;;;;;;;4.00;2.33;;;;;28.27;37.49;101056.41;5095999;27;45323;-84
2023/07/08 05:29:54;;;;;;;;;2.67;2.67;;;;;28.28;38.25;101056.22;5096186;27;45236;-85
2023/07/08 05:32:20;;;;;;;;;4.00;4.00;;;;;28.29;38.07;101079.22;5095628;27;47616;-84
2023/07/08 05:34:46;;;;;;;;;4.00;4.00;;;;;28.25;38.18;101087.91;5079510;27;45526;-85
2023/07/08 05:37:12;;;;;;;;;4.33;4.33;;;;;28.23;37.70;101085.47;5097029;27;45762;-84
2023/07/08 05:39:38;;;;;;;;;4.00;4.00;;;;;28.23;37.92;101104.19;5113373;27;45526;-84
2023/07/08 05:42:04;;;;;;;;;3.00;3.00;;;;;28.27;38.31;101115.25;5096513;27;46397;-84
2023/07/08 05:44:30;;;;;;;;;4.00;4.00;;;;;28.28;38.14;101119.59;5095590;27;45384;-84
2023/07/08 05:46:55;;;;;;;;;4.00;3.00;;;;;28.24;38.42;101113.84;5095635;27;45359;-85
2023/07/08 05:49:21;;;;;;;;;4.00;4.00;;;;;28.27;37.95;101126.78;5095829;27;45683;-85
2023/07/08 05:51:47;;;;;;;;;4.00;4.00;;;;;28.25;38.29;101138.75;5095151;27;48217;-84
2023/07/08 05:54:13;;;;;;;;;4.33;3.00;;;;;28.24;38.19;101145.94;5112825;27;45509;-84
2023/07/08 05:56:38;;;;;;;;;6.00;4.00;;;;;28.30;37.59;101165.66;5112420;27;45295;-85
2023/07/08 05:59:04;;;;;;;;;4.00;4.00;;;;;28.25;38.05;101176.19;5096375;27;45356;-84
2023/07/08 06:01:30;;;;;;;;;4.00;4.00;;;;;28.26;37.62;101184.00;5095812;27;47348;-85
2023/07/08 06:03:58;;;;;;;;;4.67;3.00;;;;;28.26;38.09;101170.63;5095708;27;45325;-84
2023/07/08 06:06:25;;;;;;;;;4.67;4.33;;;;;28.23;37.76;101208.53;5097145;27;45380;-85
2023/07/08 06:08:50;;;;;;;;;2.67;2.67;;;;;28.27;38.40;101209.72;5095476;27;45328;-84
2023/07/08 06:11:16;;;;;;;;;5.67;3.67;;;;;28.31;37.86;101212.81;5094627;27;47906;-84
2023/07/08 06:13:42;;;;;;;;;3.00;3.00;;;;;28.33;37.86;101221.44;5096426;27;45274;-84
2023/07/08 06:16:07;;;;;;;;;4.00;3.00;;;;;28.17;37.47;101207.53;5094857;27;45340;-84
2023/07/08 06:18:33;;;;;;;;;4.33;4.33;;;;;28.31;37.82;101231.53;5096608;27;45349;-85
2023/07/08 06:20:59;;;;;;;;;3.33;3.33;;;;;28.28;37.76;101223.94;5096672;27;46000;-84
2023/07/08 06:23:25;;;;;;;;;4.00;4.00;;;;;28.34;38.18;101239.13;5096528;27;45417;-85
2023/07/08 06:25:50;;;;;;;;;2.33;2.33;;;;;28.31;37.60;101228.88;5096414;27;45388;-84
2023/07/08 06:28:17;;;;;;;;;3.00;3.00;;;;;28.31;38.00;101230.72;5094981;27;45375;-84
2023/07/08 06:30:42;;;;;;;;;5.00;4.00;;;;;28.34;37.66;101239.13;5094971;27;46668;-84
2023/07/08 06:33:07;;;;;;;;;3.00;3.00;;;;;28.34;37.55;101239.13;5096158;27;45487;-84
2023/07/08 06:35:33;;;;;;;;;4.00;4.00;;;;;28.33;38.37;101250.88;5095058;27;45482;-84
2023/07/08 06:37:58;;;;;;;;;3.33;3.33;;;;;28.35;38.11;101256.81;5094868;27;45556;-84
2023/07/08 06:40:24;;;;;;;;;2.33;2.33;;;;;28.34;38.20;101249.03;5093893;27;46981;-83
2023/07/08 06:42:49;;;;;;;;;3.33;3.33;;;;;28.33;38.12;101250.03;5096841;27;45522;-83
2023/07/08 06:45:15;;;;;;;;;4.33;3.00;;;;;28.37;37.63;101268.13;5095246;27;45466;-83
2023/07/08 06:47:41;;;;;;;;;4.67;4.00;;;;;28.29;37.79;101255.81;5094447;27;45574;-84
2023/07/08 06:50:08;;;;;;;;;4.00;3.00;;;;;28.28;38.05;101259.53;5096033;27;47477;-84
2023/07/08 06:52:37;;;;;;;;;3.00;3.00;;;;;28.36;38.14;101282.56;5094658;27;45393;-84
2023/07/08 06:55:04;;;;;;;;;2.00;1.33;;;;;28.33;37.62;101277.63;5096188;27;45274;-84
2023/07/08 06:57:30;;;;;;;;;5.00;3.00;;;;;28.39;37.77;101286.66;5111995;27;45600;-83
2023/07/08 06:59:55;;;;;;;;;4.00;4.00;;;;;28.39;37.92;101290.13;5095464;27;45715;-84
2023/07/08 07:02:20;;;;;;;;;2.00;2.00;;;;;28.38;37.64;101295.72;5094617;27;45354;-84
2023/07/08 07:04:46;;;;;;;;;4.00;3.00;;;;;28.38;38.21;101276.97;5094645;27;45303;-84
2023/07/08 07:07:12;;;;;;;;;2.67;2.67;;;;;28.43;37.62;101292.38;5094355;27;45365;-85
2023/07/08 07:09:39;;;;;;;;;6.00;5.00;;;;;28.46;37.62;101287.47;5094691;27;47315;-83
2023/07/08 07:12:06;;;;;;;;;3.00;3.00;;;;;28.48;37.94;101290.75;5095765;27;45267;-84
2023/07/08 07:14:31;;;;;;;;;3.00;3.00;;;;;28.39;38.23;101271.41;5094853;27;45388;-84
2023/07/08 07:16:57;;;;;;;;;4.00;4.00;;;;;28.44;38.42;101294.88;5094233;27;45486;-84
2023/07/08 07:19:22;;;;;;;;;3.00;3.00;;;;;28.43;37.89;101295.06;5094192;27;45513;-84
2023/07/08 07:21:48;;;;;;;;;3.00;3.00;;;;;28.44;37.82;101299.41;5093475;27;45372;-85
2023/07/08 07:24:13;;;;;;;;;3.33;3.00;;;;;28.41;38.14;101284.59;5094512;27;45375;-84
2023/07/08 07:26:40;;;;;;;;;3.00;2.33;;;;;28.43;38.04;101290.53;5095783;27;45550;-85
2023/07/08 07:29:05;;;;;;;;;4.33;3.33;;;;;28.39;37.73;101289.34;5096658;27;47330;-85
2023/07/08 07:31:32;;;;;;;;;2.33;2.33;;;;;28.41;37.91;101292.63;5099078;27;45389;-84
2023/07/08 07:33:58;;;;;;;;;4.00;3.67;;;;;28.40;38.04;101299.81;5099389;27;45297;-85
2023/07/08 07:36:26;;;;;;;;;3.00;3.00;;;;;28.40;38.33;101299.81;5097838;27;45410;-85
2023/07/08 07:38:52;;;;;;;;;3.00;3.00;;;;;28.42;38.18;101306.81;5099344;27;46689;-85
2023/07/08 07:41:17;;;;;;;;;3.67;3.67;;;;;28.37;38.04;101302.91;5099161;27;45407;-85
2023/07/08 07:43:43;;;;;;;;;2.00;2.00;;;;;28.40;37.84;101317.72;5099270;27;45417;-84
2023/07/08 07:46:10;;;;;;;;;2.33;2.33;;;;;28.42;38.05;101331.69;5098024;27;45553;-84
2023/07/08 07:48:36;;;;;;;;;3.67;3.67;;;;;28.42;38.02;101342.41;5099017;27;46666;-85
2023/07/08 07:51:02;;;;;;;;;3.67;3.00;;;;;28.42;37.89;101352.31;5097610;27;45292;-84
2023/07/08 07:53:27;;;;;;;;;2.67;2.67;;;;;28.35;37.73;101337.09;5098912;27;45448;-84
2023/07/08 07:56:00;;;;;;;;;5.00;4.00;;;;;28.42;37.97;101346.97;5097875;27;45551;-85
2023/07/08 07:58:25;;;;;;;;;4.00;2.00;;;;;28.38;37.79;101341.19;5099102;27;45414;-84
2023/07/08 08:00:51;;;;;;;;;3.00;3.00;;;;;28.43;37.78;101349.41;5098692;27;45378;-84
2023/07/08 08:03:16;;;;;;;;;3.00;3.00;;;;;28.40;38.29;101356.00;5098833;27;45240;-84
2023/07/08 08:05:42;;;;;;;;;4.00;3.00;;;;;28.40;38.03;101366.72;5098705;27;45477;-84
2023/07/08 08:08:08;;;;;;;;;3.00;3.00;;;;;28.40;37.50;101365.88;5080576;27;46742;-84
2023/07/08 08:10:34;;;;;;;;;3.00;3.00;;;;;28.43;38.18;101360.13;5099227;27;45295;-84
2023/07/08 08:13:00;;;;;;;;;3.00;3.00;;;;;28.43;37.66;101367.31;5097588;27;45278;-84
2023/07/08 08:15:25;;;;;;;;;2.67;2.67;;;;;28.38;38.04;101366.09;5097074;27;45517;-83
2023/07/08 08:17:51;;;;;;;;;3.00;3.00;;;;;28.38;37.51;101378.66;5098350;27;46057;-84
2023/07/08 08:20:18;;;;;;;;;3.33;3.00;;;;;28.40;37.71;101387.28;5098395;27;45476;-84
2023/07/08 08:22:45;;;;;;;;;2.00;2.00;;;;;28.31;38.24;101370.66;5097818;27;45721;-84
2023/07/08 08:25:12;;;;;;;;;3.00;2.00;;;;;28.39;37.90;101373.09;5098309;27;45634;-84
2023/07/08 08:27:38;;;;;;;;;3.67;3.00;;;;;28.47;38.40;101393.47;5097558;27;45485;-84
2023/07/08 08:30:05;;;;;;;;;2.67;2.67;;;;;28.48;37.92;101389.78;5097098;27;45445;-84
2023/07/08 08:32:30;;;;;;;;;2.67;2.67;;;;;28.49;37.87;101391.44;5097501;27;45892;-85
2023/07/08 08:34:56;;;;;;;;;2.33;2.33;;;;;28.43;37.85;101389.56;5097981;27;45479;-84
2023/07/08 08:37:21;;;;;;;;;3.00;3.00;;;;;28.50;38.17;101414.47;5097178;27;46787;-84
2023/07/08 08:39:46;;;;;;;;;3.00;3.00;;;;;28.51;37.90;101423.31;5096013;27;45432;-84
2023/07/08 08:42:28;;;;;;;;;2.33;2.33;;;;;28.49;37.84;101418.19;5097428;27;45694;-84
2023/07/08 08:44:57;;;;;;;;;2.67;2.67;;;;;28.54;38.26;101427.44;5096803;27;45652;-83
2023/07/08 08:47:22;;;;;;;;;3.00;3.00;;;;;28.56;38.24;101428.03;5098028;27;46618;-83
2023/07/08 08:49:57;;;;;;;;;3.50;3.00;;;;;28.56;37.72;101428.88;5096371;27;45394;-80
2023/07/08 08:52:25;;;;;;;;;4.00;3.00;;;;;28.58;37.79;101428.66;5093348;27;45354;-86
2023/07/08 08:54:51;;;;;;;;;3.00;3.00;;;;;28.59;37.60;101427.63;5075921;27;45651;-81
2023/07/08 08:57:32;;;;;;;;;5.00;5.00;;;;;28.61;37.62;101430.91;5077407;27;46401;-81
2023/07/08 08:59:59;;;;;;;;;1.67;1.67;;;;;28.56;37.96;101422.69;5093208;27;45481;-84
2023/07/08 09:02:46;;;;;;;;;2.33;2.33;;;;;28.63;38.11;101432.34;5090602;27;45502;-82
2023/07/08 09:05:13;;;;;;;;;3.33;3.33;;;;;28.60;37.99;101421.22;5096834;27;45495;-84
2023/07/08 09:08:10;;;;;;;;;2.33;2.33;;;;;28.62;38.11;101422.66;5096325;27;45386;-87
2023/07/08 09:11:11;;;;;;;;;2.00;2.00;;;;;28.62;37.96;101432.56;5095167;27;45459;-87
2023/07/08 09:13:44;;;;;;;;;3.00;3.00;;;;;28.53;37.95;101415.91;5094628;27;45316;-85
2023/07/08 09:16:32;;;;;;;;;2.00;2.00;;;;;28.61;38.00;101420.19;5087930;27;45483;-84
2023/07/08 09:19:34;;;;;;;;;3.00;3.00;;;;;28.46;38.34;101385.66;5096175;27;45516;-87
2023/07/08 09:22:10;;;;;;;;;2.00;2.00;;;;;28.55;37.90;101403.13;5094431;27;45457;-83
2023/07/08 09:24:49;;;;;;;;;1.33;1.33;;;;;28.62;38.41;101422.66;5096077;27;45472;-85
2023/07/08 09:27:15;;;;;;;;;2.67;2.67;;;;;28.57;37.89;101421.66;5096716;27;45559;-82
2023/07/08 09:29:40;;;;;;;;;2.67;2.67;;;;;28.57;37.54;101414.47;5094147;27;45895;-86
2023/07/08 09:32:18;;;;;;;;;4.00;3.00;;;;;28.63;38.01;101424.31;5093846;27;45522;-87
2023/07/08 09:34:55;;;;;;;;;2.33;2.33;;;;;28.65;38.21;101424.09;5095242;27;45326;-81
2023/07/08 09:37:34;;;;;;;;;2.00;2.00;;;;;28.69;38.31;101422.63;5094803;27;45588;-83
2023/07/08 09:40:35;;;;;;;;;4.67;3.00;;;;;28.69;38.53;101430.66;5090699;27;47264;-83
2023/07/08 09:43:16;;;;;;;;;1.33;1.33;;;;;28.71;38.08;101425.09;5065167;27;45382;-84
2023/07/08 09:45:48;;;;;;;;;3.00;3.00;;;;;28.69;38.09;101432.53;5076215;27;45393;-79
2023/07/08 09:48:26;;;;;;;;;3.00;2.00;;;;;28.72;38.45;101437.47;5085825;27;45451;-79
2023/07/08 09:50:55;;;;;;;;;3.67;2.00;;;;;28.67;38.75;101430.06;5096039;27;46317;-78
2023/07/08 09:53:21;;;;;;;;;4.00;3.00;;;;;28.74;38.36;101438.06;5095907;27;45248;-85
2023/07/08 09:55:46;;;;;;;;;2.33;2.33;;;;;28.68;38.59;101425.50;5095373;27;45306;-83
2023/07/08 09:58:18;;;;;;;;;3.00;3.00;;;;;28.73;38.40;101431.06;5096924;27;45215;-85
2023/07/08 10:00:53;;;;;;;;;4.00;3.00;;;;;28.73;38.50;101431.88;5096804;27;46470;-85
2023/07/08 10:03:25;;;;;;;;;3.00;3.00;;;;;28.56;38.42;101401.28;5095491;27;45534;-85
2023/07/08 10:05:57;;;;;;;;;2.00;2.00;;;;;28.68;38.51;101423.66;5095546;27;45398;-85
2023/07/08 10:08:24;;;;;;;;;1.33;1.33;;;;;28.70;38.51;101429.63;5095577;27;45539;-84
2023/07/08 10:11:00;;;;;;;;;2.67;2.00;;;;;28.71;38.63;101427.78;5096916;27;45442;-85
2023/07/08 10:13:29;;;;;;;;;1.33;1.33;;;;;28.72;38.28;101430.25;5096723;27;45710;-84
2023/07/08 10:16:13;;;;;;;;;4.00;4.00;;;;;28.67;38.23;101427.41;5095965;27;45412;-84
2023/07/08 10:18:39;;;;;;;;;3.00;2.33;;;;;28.70;38.54;101421.59;5096777;27;45474;-86
2023/07/08 10:21:47;;;;;;;;;3.33;3.33;;;;;28.70;37.98;101415.44;5096620;27;46314;-85
2023/07/08 10:24:30;;;;;;;;;1.33;1.33;;;;;28.67;38.62;101426.56;5096073;27;45364;-86
2023/07/08 10:27:20;;;;;;;;;4.00;4.00;;;;;28.66;38.81;101432.94;5096102;27;45401;-85
2023/07/08 10:29:59;;;;;;;;;4.00;2.33;;;;;28.63;37.98;101426.97;5096430;27;45520;-84
2023/07/08 10:32:45;;;;;;;;;3.00;2.33;;;;;28.65;38.81;101415.25;5095717;27;45575;-85
2023/07/08 10:35:17;;;;;;;;;1.67;1.67;;;;;28.65;37.96;101425.97;5095133;27;45348;-85
2023/07/08 10:38:22;;;;;;;;;4.67;3.33;;;;;28.50;38.48;101401.09;5096157;27;45457;-85
2023/07/08 10:41:04;;;;;;;;;3.67;3.00;;;;;28.57;38.30;101419.81;5073299;28;45555;-84
2023/07/08 10:43:47;;;;;;;;;2.67;2.33;;;;;28.66;38.17;101419.56;5056706;28;46729;-85
2023/07/08 10:46:24;;;;;;;;;2.33;2.33;;;;;28.66;38.52;101425.75;5072665;28;45361;-85
2023/07/08 10:49:27;;;;;;;;;2.33;2.33;;;;;28.67;38.68;101431.91;5074118;28;45259;-85
2023/07/08 10:52:16;;;;;;;;;3.67;3.67;;;;;28.67;38.51;101431.91;5073536;27;45344;-85
2023/07/08 10:54:51;;;;;;;;;2.33;1.33;;;;;28.66;38.38;101433.78;5073494;27;46474;-84
2023/07/08 10:57:38;;;;;;;;;2.00;2.00;;;;;28.66;38.40;101443.66;5073530;27;45410;-85
2023/07/08 11:00:18;;;;;;;;;4.00;3.00;;;;;28.66;38.21;101443.66;5073005;27;45350;-85
2023/07/08 11:03:11;;;;;;;;;3.00;3.00;;;;;28.66;38.86;101443.66;5057161;28;45435;-85
2023/07/08 11:05:47;;;;;;;;;4.00;2.00;;;;;28.66;38.42;101446.31;5059852;28;46684;-85
2023/07/08 11:08:15;;;;;;;;;2.33;1.67;;;;;28.65;38.58;101434.78;5059841;28;45332;-85
2023/07/08 11:10:54;;;;;;;;;2.00;1.33;;;;;28.65;38.39;101434.00;5059838;28;45292;-85
2023/07/08 11:13:25;;;;;;;;;2.00;2.00;;;;;28.55;39.02;101416.50;5076902;28;45444;-85
2023/07/08 11:16:05;;;;;;;;;3.00;3.00;;;;;28.58;38.94;101429.47;5059704;28;45457;-85
2023/07/08 11:19:03;;;;;;;;;4.00;3.00;;;;;28.62;38.78;101430.69;5092859;27;45454;-86
2023/07/08 11:21:39;;;;;;;;;3.00;3.00;;;;;28.62;38.91;101429.88;5100060;27;45366;-86
2023/07/08 11:24:13;;;;;;;;;2.67;2.67;;;;;28.60;39.11;101411.34;5098079;27;45631;-86
2023/07/08 11:26:53;;;;;;;;;4.00;3.00;;;;;28.60;38.75;101392.59;5098950;27;46569;-86
2023/07/08 11:29:39;;;;;;;;;5.00;3.00;;;;;28.60;38.44;101370.34;5099359;27;45449;-85
2023/07/08 11:32:13;;;;;;;;;2.00;2.00;;;;;28.44;38.48;101326.97;5098275;27;45528;-86
2023/07/08 11:34:41;;;;;;;;;2.00;2.00;;;;;28.59;39.03;101347.31;5098957;27;46062;-86
2023/07/08 11:37:08;;;;;;;;;4.67;3.00;;;;;28.60;38.15;101357.81;5099217;27;46702;-86